Time;durP1;ratioP1;P1;durP2;ratioP2;P2;SDS_P1;SDS_P2;PMS_P1;PMS_P2;Temp;Humidity;BMP_temperature;BMP_pressure;BME280_temperature;BME280_humidity;BME280_pressure;Samples;Min_cycle;Max_cycle;Signal;HPM_P1;HPM_P2
2023/11/01 00:02:17;;;;;;;4.75;2.33;;;;;;;;;;5059273;28;20087;-90
2023/11/01 00:04:45;;;;;;;3.42;1.77;;;;;;;;;;5059759;28;20077;-91
2023/11/01 00:07:11;;;;;;;3.97;1.60;;;;;;;;;;5059346;28;20127;-90
2023/11/01 00:09:38;;;;;;;3.70;1.70;;;;;;;;;;5059412;28;20047;-91
2023/11/01 00:12:16;;;;;;;3.85;1.50;;;;;;;;;;5059654;28;20039;-91
2023/11/01 00:14:45;;;;;;;3.50;1.67;;;;;;;;;;5059390;28;20052;-91
2023/11/01 00:17:14;;;;;;;4.03;1.70;;;;;;;;;;5059323;28;20024;-90
2023/11/01 00:19:43;;;;;;;3.78;1.52;;;;;;;;;;5059429;28;20025;-91
2023/11/01 00:22:12;;;;;;;5.88;1.95;;;;;;;;;;5077669;28;20040;-90
2023/11/01 00:24:50;;;;;;;3.88;2.00;;;;;;;;;;5082069;28;20020;-91
2023/11/01 00:27:19;;;;;;;4.07;2.20;;;;;;;;;;5065426;28;20040;-90
2023/11/01 00:29:46;;;;;;;4.18;2.20;;;;;;;;;;5061399;28;20116;-91
2023/11/01 00:32:14;;;;;;;4.28;2.03;;;;;;;;;;5059180;28;20028;-91
2023/11/01 00:34:43;;;;;;;2.83;1.83;;;;;;;;;;5060084;28;20020;-89
2023/11/01 00:37:21;;;;;;;5.55;2.22;;;;;;;;;;5061844;28;20025;-89
2023/11/01 00:39:50;;;;;;;3.88;2.20;;;;;;;;;;5058853;28;20377;-91
2023/11/01 00:42:19;;;;;;;5.75;2.50;;;;;;;;;;5058691;28;20056;-90
2023/11/01 00:44:48;;;;;;;4.05;2.35;;;;;;;;;;5058766;28;20062;-90
2023/11/01 00:47:24;;;;;;;5.45;2.65;;;;;;;;;;5058359;28;20060;-90
2023/11/01 00:49:50;;;;;;;3.80;2.35;;;;;;;;;;5058818;28;20033;-92
2023/11/01 00:52:19;;;;;;;4.85;2.42;;;;;;;;;;5058352;28;20029;-91
2023/11/01 00:54:48;;;;;;;4.78;2.45;;;;;;;;;;5058461;28;20016;-91
2023/11/01 00:57:25;;;;;;;5.07;2.58;;;;;;;;;;5076218;28;20028;-91
2023/11/01 00:59:54;;;;;;;5.75;2.45;;;;;;;;;;5058745;28;20452;-91
2023/11/01 01:02:26;;;;;;;4.93;2.65;;;;;;;;;;5058754;28;20020;-90
2023/11/01 01:04:52;;;;;;;4.55;2.72;;;;;;;;;;5058865;28;20028;-91
2023/11/01 01:07:20;;;;;;;5.57;3.20;;;;;;;;;;5059295;28;20442;-91
2023/11/01 01:09:53;;;;;;;4.38;2.67;;;;;;;;;;5058822;28;20063;-91
2023/11/01 01:12:19;;;;;;;4.97;3.70;;;;;;;;;;5059549;28;20032;-91
2023/11/01 01:14:52;;;;;;;6.25;3.70;;;;;;;;;;5058469;28;20029;-91
2023/11/01 01:17:38;;;;;;;5.38;4.13;;;;;;;;;;5059501;28;20067;-89
2023/11/01 01:20:10;;;;;;;6.15;4.55;;;;;;;;;;5058476;28;20047;-91
2023/11/01 01:22:38;;;;;;;7.05;4.20;;;;;;;;;;5066097;28;20025;-90
2023/11/01 01:25:07;;;;;;;7.50;4.47;;;;;;;;;;5067249;28;20029;-91
2023/11/01 01:28:03;;;;;;;6.93;3.50;;;;;;;;;;5058964;28;20042;-91
2023/11/01 01:30:32;;;;;;;4.30;2.72;;;;;;;;;;5031838;28;20473;-90
2023/11/01 01:33:24;;;;;;;5.35;3.53;;;;;;;;;;5058004;28;20028;-91
2023/11/01 01:36:02;;;;;;;5.03;3.60;;;;;;;;;;5061525;28;20091;-91
2023/11/01 01:38:37;;;;;;;5.65;3.60;;;;;;;;;;5060561;28;20028;-91
2023/11/01 01:41:06;;;;;;;8.18;4.03;;;;;;;;;;5058334;28;20469;-90
2023/11/01 01:43:35;;;;;;;6.53;4.38;;;;;;;;;;5057597;28;20384;-91
2023/11/01 01:46:24;;;;;;;5.95;3.97;;;;;;;;;;5057475;28;20412;-90
2023/11/01 01:48:50;;;;;;;6.88;3.80;;;;;;;;;;5075553;28;20036;-91
2023/11/01 01:51:22;;;;;;;7.43;3.83;;;;;;;;;;5060040;28;20078;-91
2023/11/01 01:56:39;;;;;;;7.63;4.32;;;;;;;;;;5079531;28;20062;-91
2023/11/01 01:59:14;;;;;;;6.60;4.05;;;;;;;;;;5060309;28;20024;-92
2023/11/01 02:01:56;;;;;;;7.60;5.35;;;;;;;;;;5058921;28;20464;-91
2023/11/01 02:04:26;;;;;;;4.57;3.90;;;;;;;;;;5057715;28;20492;-91
2023/11/01 02:06:56;;;;;;;8.98;4.60;;;;;;;;;;5053028;28;20053;-92
2023/11/01 02:09:25;;;;;;;7.60;4.63;;;;;;;;;;5055532;28;20539;-91
2023/11/01 02:11:59;;;;;;;6.38;4.97;;;;;;;;;;5058620;28;20041;-90
2023/11/01 02:14:26;;;;;;;7.82;5.57;;;;;;;;;;5055501;28;20045;-91
2023/11/01 02:17:09;;;;;;;7.10;5.13;;;;;;;;;;5057170;28;20064;-91
2023/11/01 02:19:44;;;;;;;7.25;5.40;;;;;;;;;;5053998;28;20509;-91
2023/11/01 02:22:17;;;;;;;6.50;4.85;;;;;;;;;;5056103;28;20681;-90
2023/11/01 02:24:53;;;;;;;7.35;4.93;;;;;;;;;;5059450;28;20032;-90
2023/11/01 02:27:50;;;;;;;6.93;5.13;;;;;;;;;;5056748;28;20041;-89
2023/11/01 02:30:16;;;;;;;6.32;4.85;;;;;;;;;;5087637;22;20096;-91
2023/11/01 02:32:53;;;;;;;6.60;5.40;;;;;;;;;;5229743;22;20046;-91
2023/11/01 02:35:25;;;;;;;7.13;5.82;;;;;;;;;;5345865;22;20078;-92
2023/11/01 02:38:02;;;;;;;8.82;5.68;;;;;;;;;;5046549;28;20066;-90
2023/11/01 02:40:35;;;;;;;6.95;4.70;;;;;;;;;;5157996;22;20034;-91
2023/11/01 02:43:01;;;;;;;5.47;4.97;;;;;;;;;;5037795;28;20040;-89
2023/11/01 02:45:37;;;;;;;8.52;4.68;;;;;;;;;;5020163;28;20045;-91
2023/11/01 02:48:06;;;;;;;7.28;5.47;;;;;;;;;;5019063;28;20074;-91
2023/11/01 02:53:20;;;;;;;9.10;5.47;;;;;;;;;;5357151;22;20048;-92
2023/11/01 03:09:36;;;;;;;7.40;5.75;;;;;;;;;;5078771;28;20439;-91
2023/11/01 03:12:05;;;;;;;13.65;5.93;;;;;;;;;;5102395;22;20004;-91
2023/11/01 03:14:38;;;;;;;6.28;5.10;;;;;;;;;;5071275;28;20039;-91
2023/11/01 03:17:27;;;;;;;6.57;5.33;;;;;;;;;;5070754;28;20075;-90
2023/11/01 03:19:56;;;;;;;7.53;5.60;;;;;;;;;;5055643;28;20576;-91
2023/11/01 03:25:36;;;;;;;7.00;5.72;;;;;;;;;;5130568;22;20111;-91
2023/11/01 03:28:10;;;;;;;9.15;6.00;;;;;;;;;;5079017;28;20037;-91
2023/11/01 03:30:38;;;;;;;8.73;5.90;;;;;;;;;;5083530;28;20013;-91
2023/11/01 03:33:13;;;;;;;8.38;5.60;;;;;;;;;;5077630;28;20103;-91
2023/11/01 03:35:54;;;;;;;7.47;6.18;;;;;;;;;;5065836;28;20024;-91
2023/11/01 03:38:23;;;;;;;5.55;4.93;;;;;;;;;;5061083;28;20033;-91
2023/11/01 03:40:54;;;;;;;7.85;4.97;;;;;;;;;;5060684;28;20088;-92
2023/11/01 03:43:21;;;;;;;5.88;4.40;;;;;;;;;;5060590;28;20028;-91
2023/11/01 03:45:57;;;;;;;5.68;5.05;;;;;;;;;;5063306;28;20060;-91
2023/11/01 03:48:26;;;;;;;6.95;5.47;;;;;;;;;;5066688;28;20028;-91
2023/11/01 03:50:58;;;;;;;7.43;5.60;;;;;;;;;;5060836;28;20032;-91
2023/11/01 03:53:27;;;;;;;8.57;5.80;;;;;;;;;;5059659;28;20025;-90
2023/11/01 03:55:53;;;;;;;8.88;5.45;;;;;;;;;;5060069;28;20021;-91
2023/11/01 03:58:19;;;;;;;8.23;5.15;;;;;;;;;;5061159;28;20507;-90
2023/11/01 04:00:56;;;;;;;8.82;5.35;;;;;;;;;;5060887;28;20041;-91
2023/11/01 04:03:28;;;;;;;5.93;4.32;;;;;;;;;;5062444;28;20033;-91
2023/11/01 04:06:03;;;;;;;4.97;3.90;;;;;;;;;;5061173;28;20481;-92
2023/11/01 04:08:33;;;;;;;6.15;4.70;;;;;;;;;;5048788;28;20115;-91
2023/11/01 04:11:05;;;;;;;4.78;3.10;;;;;;;;;;5056983;28;20336;-91
2023/11/01 04:13:34;;;;;;;4.32;3.28;;;;;;;;;;5060503;28;20025;-91
2023/11/01 04:16:03;;;;;;;4.60;3.70;;;;;;;;;;5062722;28;20029;-91
2023/11/01 04:18:34;;;;;;;5.20;3.13;;;;;;;;;;5044220;28;20470;-91
2023/11/01 04:21:00;;;;;;;4.95;3.58;;;;;;;;;;5040803;28;20450;-91
2023/11/01 04:23:30;;;;;;;4.18;3.35;;;;;;;;;;5049659;28;20032;-90
2023/11/01 04:26:02;;;;;;;4.43;3.30;;;;;;;;;;5060438;28;20041;-91
2023/11/01 04:36:16;;;;;;;4.18;3.10;;;;;;;;;;5076420;28;20070;-91
2023/11/01 04:38:47;;;;;;;4.95;3.03;;;;;;;;;;5058296;28;20132;-92
2023/11/01 04:41:19;;;;;;;5.60;3.33;;;;;;;;;;5056474;28;20032;-92
2023/11/01 04:43:58;;;;;;;4.95;4.00;;;;;;;;;;5058710;28;20032;-92
2023/11/01 04:49:53;;;;;;;4.50;2.88;;;;;;;;;;5025949;22;20097;31
2023/11/01 04:52:25;;;;;;;4.55;3.60;;;;;;;;;;5175525;22;20040;-91
2023/11/01 04:55:01;;;;;;;4.18;3.20;;;;;;;;;;5083026;28;20349;-92
2023/11/01 04:57:33;;;;;;;5.50;3.92;;;;;;;;;;5079591;28;20464;-91
2023/11/01 05:00:08;;;;;;;5.05;3.92;;;;;;;;;;5079326;28;20395;-91
2023/11/01 05:02:51;;;;;;;5.85;3.05;;;;;;;;;;5078192;28;20396;-92
2023/11/01 05:05:20;;;;;;;4.63;3.30;;;;;;;;;;5075702;28;20700;-92
2023/11/01 05:07:52;;;;;;;4.50;3.40;;;;;;;;;;5095858;28;20495;-92
2023/11/01 05:10:38;;;;;;;4.95;3.28;;;;;;;;;;5079706;28;20076;-92
2023/11/01 05:13:10;;;;;;;3.83;2.95;;;;;;;;;;5078266;28;20028;-92
2023/11/01 05:15:42;;;;;;;3.67;3.20;;;;;;;;;;5077918;28;20032;-91
2023/11/01 05:18:11;;;;;;;5.85;3.15;;;;;;;;;;5079059;28;20069;-92
2023/11/01 05:20:38;;;;;;;3.85;2.85;;;;;;;;;;5098839;28;20039;-92
2023/11/01 05:23:05;;;;;;;4.05;3.13;;;;;;;;;;5082325;28;20024;-91
2023/11/01 05:25:31;;;;;;;5.22;2.90;;;;;;;;;;5078895;22;20054;-90
2023/11/01 05:28:00;;;;;;;4.30;3.20;;;;;;;;;;5041898;28;20092;-91
2023/11/01 05:30:32;;;;;;;4.78;3.20;;;;;;;;;;4978629;28;20017;-91
2023/11/01 05:33:07;;;;;;;4.15;3.28;;;;;;;;;;5041045;28;20042;-89
2023/11/01 05:35:46;;;;;;;3.75;2.88;;;;;;;;;;4980853;28;20050;-90
2023/11/01 05:44:20;;;;;;;3.23;2.67;;;;;;;;;;4974211;28;20482;-91
2023/11/01 05:46:52;;;;;;;4.10;3.03;;;;;;;;;;5041005;28;20406;-91
2023/11/01 05:49:23;;;;;;;3.92;2.92;;;;;;;;;;5040861;28;20019;-91
2023/11/01 05:51:53;;;;;;;3.80;2.90;;;;;;;;;;5168740;22;20042;-91
2023/11/01 05:54:19;;;;;;;3.53;2.80;;;;;;;;;;4991595;28;20045;-89
2023/11/01 05:56:48;;;;;;;7.50;2.38;;;;;;;;;;4992823;28;20069;-90
2023/11/01 05:59:32;;;;;;;6.22;3.38;;;;;;;;;;4991818;28;20033;-89
2023/11/01 06:02:05;;;;;;;4.47;3.22;;;;;;;;;;4992780;28;20045;-90
2023/11/01 06:04:32;;;;;;;3.65;2.58;;;;;;;;;;4992386;28;20026;-91
2023/11/01 06:07:02;;;;;;;3.92;3.28;;;;;;;;;;4992041;28;20046;-90
2023/11/01 06:09:28;;;;;;;4.38;3.53;;;;;;;;;;4994651;28;20083;-91
2023/11/01 06:11:57;;;;;;;4.35;2.92;;;;;;;;;;4994481;28;20151;-92
2023/11/01 06:14:27;;;;;;;4.45;3.95;;;;;;;;;;4995977;28;20026;-91
2023/11/01 06:17:05;;;;;;;4.82;4.05;;;;;;;;;;4999964;28;20079;-93
2023/11/01 06:19:34;;;;;;;8.02;2.60;;;;;;;;;;5256926;22;20412;-89
2023/11/01 06:22:00;;;;;;;4.47;3.20;;;;;;;;;;5063119;28;20226;-90
2023/11/01 06:24:29;;;;;;;5.03;4.63;;;;;;;;;;5060388;28;20047;-89
2023/11/01 06:26:55;;;;;;;3.13;2.80;;;;;;;;;;5060885;28;20075;-91
2023/11/01 06:29:21;;;;;;;3.13;2.90;;;;;;;;;;5057654;28;20485;-89
2023/11/01 06:31:59;;;;;;;4.78;2.03;;;;;;;;;;5058891;28;20048;-92
2023/11/01 06:34:28;;;;;;;5.93;5.03;;;;;;;;;;5058464;28;20056;-91
2023/11/01 06:36:58;;;;;;;11.38;9.55;;;;;;;;;;5064811;28;20096;-89
2023/11/01 06:39:24;;;;;;;13.40;11.98;;;;;;;;;;5078937;28;20088;-89
2023/11/01 06:41:56;;;;;;;15.23;12.63;;;;;;;;;;5071468;28;20067;-93
2023/11/01 06:44:29;;;;;;;16.07;11.87;;;;;;;;;;5064444;28;20031;-93
2023/11/01 06:46:55;;;;;;;11.35;9.23;;;;;;;;;;5066748;28;20032;-92
2023/11/01 06:49:24;;;;;;;10.60;7.50;;;;;;;;;;5074645;28;20078;-92
2023/11/01 06:51:53;;;;;;;10.30;5.00;;;;;;;;;;5067641;28;20453;-93
2023/11/01 06:57:34;;;;;;;7.00;4.70;;;;;;;;;;5088872;28;20051;-89
2023/11/01 07:00:05;;;;;;;9.65;5.78;;;;;;;;;;5075425;28;20052;-94
2023/11/01 07:02:52;;;;;;;6.00;4.97;;;;;;;;;;5076569;28;20074;-96
2023/11/01 07:05:37;;;;;;;4.15;3.33;;;;;;;;;;5066612;28;20034;-90
2023/11/01 07:08:09;;;;;;;4.45;3.28;;;;;;;;;;5063539;28;20029;-95
2023/11/01 07:10:39;;;;;;;5.05;3.38;;;;;;;;;;5065408;28;20495;-90
2023/11/01 07:13:11;;;;;;;3.85;2.25;;;;;;;;;;5068000;28;20028;-90
2023/11/01 07:16:15;;;;;;;3.37;2.00;;;;;;;;;;5067372;28;20050;-90
2023/11/01 07:22:04;;;;;;;7.65;2.20;;;;;;;;;;5090532;28;20166;-90
2023/11/01 07:30:42;;;;;;;2.05;0.60;;;;;;;;;;5084246;28;20046;-93
2023/11/01 07:33:14;;;;;;;3.03;0.50;;;;;;;;;;5073647;28;20045;-91
2023/11/01 07:35:55;;;;;;;0.47;0.20;;;;;;;;;;5058551;28;20135;-91
2023/11/01 07:38:24;;;;;;;3.17;0.52;;;;;;;;;;5060875;28;20489;-91
2023/11/01 07:41:07;;;;;;;1.35;0.50;;;;;;;;;;5045013;28;20389;-91
2023/11/01 08:15:34;;;;;;;1.02;0.50;;;;;;;;;;5043417;28;20055;-96
2023/11/01 08:27:07;;;;;;;1.30;0.35;;;;;;;;;;5879898;22;20053;-89
2023/11/01 08:49:54;;;;;;;;;;;;;;;;;;;;;
2023/11/01 08:52:53;;;;;;;0.88;0.30;;;;;;;;;;5111811;22;20067;-92
2023/11/01 08:58:38;;;;;;;0.85;0.30;;;;;;;;;;5958998;22;20121;-89
2023/11/01 09:01:24;;;;;;;3.25;0.30;;;;;;;;;;4960276;28;20047;-91
2023/11/01 09:03:53;;;;;;;0.52;0.20;;;;;;;;;;5028885;28;20312;-92
2023/11/01 09:06:53;;;;;;;1.17;0.50;;;;;;;;;;5049021;22;20026;-91
2023/11/01 09:09:22;;;;;;;0.93;0.40;;;;;;;;;;5047136;28;20028;-92
2023/11/01 09:11:57;;;;;;;2.58;0.70;;;;;;;;;;5120079;22;20068;-91
2023/11/01 10:51:38;;;;;;;5.80;1.90;;;;;;;;;;6139241;22;20021;31
2023/11/01 10:54:08;;;;;;;2.13;1.58;;;;;;;;;;4948219;28;20039;-94
2023/11/01 10:56:42;;;;;;;2.78;1.50;;;;;;;;;;4932361;29;20183;-91
2023/11/01 11:02:44;;;;;;;3.05;1.38;;;;;;;;;;4944727;29;20174;-94
2023/11/01 11:13:56;;;;;;;3.22;1.70;;;;;;;;;;5231732;22;20109;-94
2023/11/01 11:46:46;;;;;;;;;;;;;;;;;;;;;
2023/11/01 11:49:28;;;;;;;1.95;1.80;;;;;;;;;;5002351;28;20174;-93
2023/11/01 11:55:22;;;;;;;2.08;1.85;;;;;;;;;;5007837;28;20072;-96
2023/11/01 12:41:13;;;;;;;1.90;1.70;;;;;;;;;;5002224;28;20026;-92
2023/11/01 12:44:36;;;;;;;2.67;2.03;;;;;;;;;;4989635;28;20057;-94
2023/11/01 12:47:11;;;;;;;3.00;2.70;;;;;;;;;;4982271;28;20078;-90
2023/11/01 13:49:51;;;;;;;2.38;1.27;;;;;;;;;;5749309;22;20090;-95
2023/11/01 14:19:07;;;;;;;;;;;;;;;;;;;;;
2023/11/01 14:36:06;;;;;;;2.95;1.50;;;;;;;;;;5923773;22;20047;-92
2023/11/01 14:38:37;;;;;;;2.35;1.85;;;;;;;;;;4993832;28;20022;-90
2023/11/01 14:41:06;;;;;;;2.97;1.58;;;;;;;;;;4978125;28;20019;-94
2023/11/01 14:43:39;;;;;;;2.40;1.95;;;;;;;;;;4978541;28;20062;-94
2023/11/01 14:46:08;;;;;;;6.18;1.65;;;;;;;;;;4971530;28;20018;-93
2023/11/01 14:51:30;;;;;;;2.15;1.73;;;;;;;;;;4989990;28;20046;-92
2023/11/01 14:54:08;;;;;;;1.88;1.45;;;;;;;;;;4965668;28;20046;-93
2023/11/01 14:56:41;;;;;;;2.20;0.98;;;;;;;;;;4965022;28;20035;-94
2023/11/01 14:59:07;;;;;;;1.90;1.35;;;;;;;;;;4969611;28;20204;-96
2023/11/01 15:02:03;;;;;;;2.13;1.38;;;;;;;;;;4978083;28;20018;-95
2023/11/01 15:04:31;;;;;;;4.70;1.33;;;;;;;;;;4972122;28;20149;-93
2023/11/01 15:13:13;;;;;;;3.38;1.45;;;;;;;;;;5246207;22;20089;-94
2023/11/01 15:15:52;;;;;;;2.00;1.70;;;;;;;;;;4967791;28;20045;-94
2023/11/01 15:21:55;;;;;;;;;;;;;;;;;;;;;
2023/11/01 15:24:40;;;;;;;3.85;1.70;;;;;;;;;;5001058;28;20042;-92
2023/11/01 15:27:18;;;;;;;4.50;1.52;;;;;;;;;;4991892;28;20483;-95
2023/11/01 15:29:48;;;;;;;4.10;1.98;;;;;;;;;;4991783;28;20037;-93
2023/11/01 15:32:17;;;;;;;3.75;1.63;;;;;;;;;;4987303;28;20081;-95
2023/11/01 15:34:46;;;;;;;2.28;1.80;;;;;;;;;;4972145;28;20054;-93
2023/11/01 15:37:34;;;;;;;4.18;1.77;;;;;;;;;;4985803;28;20495;-93
2023/11/01 15:48:12;;;;;;;6.43;1.83;;;;;;;;;;5004286;28;20078;-91
2023/11/01 15:50:41;;;;;;;3.30;1.73;;;;;;;;;;4982286;28;20181;-91
2023/11/01 15:53:09;;;;;;;5.15;1.88;;;;;;;;;;4989322;28;20039;-90
2023/11/01 15:58:17;;;;;;;5.90;2.40;;;;;;;;;;5297144;23;20034;-90
2023/11/01 16:01:08;;;;;;;6.93;2.83;;;;;;;;;;5010474;28;20026;-90
2023/11/01 16:03:40;;;;;;;9.18;4.18;;;;;;;;;;5007368;28;20029;-92
2023/11/01 16:14:17;;;;;;;15.80;4.80;;;;;;;;;;5419719;22;20026;-93
2023/11/01 16:22:26;;;;;;;16.38;5.80;;;;;;;;;;5274651;23;20042;-96
2023/11/01 17:02:26;;;;;;;66.93;31.33;;;;;;;;;;6336687;22;20498;-90
2023/11/01 17:25:07;;;;;;;70.43;32.63;;;;;;;;;;6324770;22;20034;-91
2023/11/01 17:30:24;;;;;;;47.92;23.98;;;;;;;;;;6333801;22;19998;-92
2023/11/01 17:33:24;;;;;;;49.30;25.88;;;;;;;;;;6290000;22;20003;-90
2023/11/01 17:39:01;;;;;;;35.03;19.23;;;;;;;;;;6327109;22;20063;-94
2023/11/01 17:47:47;;;;;;;46.45;23.70;;;;;;;;;;6273727;22;20044;-92
2023/11/01 17:50:36;;;;;;;44.50;25.02;;;;;;;;;;6290910;22;20003;-91
2023/11/01 17:55:45;;;;;;;36.50;19.80;;;;;;;;;;6307160;22;20648;-90
2023/11/01 17:58:11;;;;;;;43.17;23.02;;;;;;;;;;6290866;22;20007;-92
2023/11/01 18:00:37;;;;;;;39.42;20.42;;;;;;;;;;6289264;22;20018;-90
2023/11/01 18:03:25;;;;;;;29.85;16.70;;;;;;;;;;6291003;22;20051;-90
2023/11/01 18:06:01;;;;;;;36.28;21.38;;;;;;;;;;6287368;22;20007;-91
2023/11/01 18:08:46;;;;;;;29.50;18.55;;;;;;;;;;6294677;22;20006;-90
2023/11/01 18:27:35;;;;;;;37.67;22.10;;;;;;;;;;6321187;22;20019;-91
2023/11/01 18:41:55;;;;;;;14.50;7.05;;;;;;;;;;6318783;22;20006;-91
2023/11/01 18:52:35;;;;;;;12.50;5.85;;;;;;;;;;6299146;22;20019;-94
2023/11/01 18:57:53;;;;;;;14.02;6.57;;;;;;;;;;6294197;22;20027;-92
2023/11/01 19:03:39;;;;;;;10.48;5.60;;;;;;;;;;6281095;22;20376;-92
2023/11/01 19:07:01;;;;;;;11.70;6.47;;;;;;;;;;6209164;22;20000;-90
2023/11/01 19:09:37;;;;;;;24.85;11.95;;;;;;;;;;6289509;22;20002;-93
2023/11/01 19:14:45;;;;;;;20.85;11.07;;;;;;;;;;6305034;22;20048;-91
2023/11/01 19:17:17;;;;;;;22.80;12.68;;;;;;;;;;6287790;22;20007;-92
2023/11/01 19:20:14;;;;;;;26.73;13.95;;;;;;;;;;6287133;22;20007;-92
2023/11/01 19:22:46;;;;;;;30.65;15.75;;;;;;;;;;6262760;22;20421;-93
2023/11/01 19:25:25;;;;;;;35.15;17.50;;;;;;;;;;6277549;22;20032;-92
2023/11/01 19:27:51;;;;;;;32.25;16.08;;;;;;;;;;6279478;22;20007;-91
2023/11/01 19:30:17;;;;;;;30.98;14.27;;;;;;;;;;6283411;22;20026;-91
2023/11/01 19:32:46;;;;;;;29.48;14.35;;;;;;;;;;6279531;22;20045;-90
2023/11/01 19:35:19;;;;;;;29.70;13.20;;;;;;;;;;6280721;22;20003;-90
2023/11/01 19:37:51;;;;;;;26.55;14.10;;;;;;;;;;6279607;22;20441;-90
2023/11/01 19:40:23;;;;;;;23.48;11.00;;;;;;;;;;6278057;22;20031;-90
2023/11/01 19:43:02;;;;;;;21.70;11.35;;;;;;;;;;6275854;22;20004;-91
2023/11/01 19:45:34;;;;;;;23.00;11.38;;;;;;;;;;6280838;22;20030;-91
2023/11/01 19:48:03;;;;;;;22.63;11.80;;;;;;;;;;6281166;22;20004;-91
2023/11/01 19:59:40;;;;;;;20.80;12.35;;;;;;;;;;6311841;22;20015;-93
2023/11/01 20:02:13;;;;;;;21.08;12.60;;;;;;;;;;6289711;22;20086;-94
2023/11/01 20:07:52;;;;;;;19.75;10.02;;;;;;;;;;6291646;22;20010;-94
2023/11/01 20:10:18;;;;;;;15.32;9.43;;;;;;;;;;6285978;22;20003;-94
2023/11/01 20:12:50;;;;;;;15.75;9.63;;;;;;;;;;6288059;22;20003;-93
2023/11/01 20:24:21;;;;;;;19.67;12.10;;;;;;;;;;6321909;22;20015;-93
2023/11/01 20:26:56;;;;;;;26.33;14.80;;;;;;;;;;6295332;22;20004;-93
2023/11/01 20:29:32;;;;;;;22.33;13.77;;;;;;;;;;6299024;22;20022;-96
2023/11/01 20:35:12;;;;;;;17.08;10.25;;;;;;;;;;6316301;22;20060;-94
2023/11/01 20:37:53;;;;;;;14.18;8.85;;;;;;;;;;6286933;22;20425;-94
2023/11/01 20:40:19;;;;;;;13.63;6.95;;;;;;;;;;6287698;22;20371;-95
2023/11/01 20:42:57;;;;;;;12.45;8.52;;;;;;;;;;6292665;22;20028;-95
2023/11/01 20:45:39;;;;;;;;;;;;;;;;;;;;;
2023/11/01 20:54:05;;;;;;;32.63;13.35;;;;;;;;;;6257012;23;20112;-91
2023/11/01 20:56:34;;;;;;;21.70;11.57;;;;;;;;;;6277996;22;20034;-93
2023/11/01 20:59:08;;;;;;;13.70;8.20;;;;;;;;;;6277947;22;20324;-91
2023/11/01 21:02:09;;;;;;;14.63;8.38;;;;;;;;;;6284472;22;20014;-93
2023/11/01 21:04:52;;;;;;;9.93;6.25;;;;;;;;;;6198474;22;20492;-93
2023/11/01 21:07:22;;;;;;;12.13;6.65;;;;;;;;;;6268104;22;20007;-94
2023/11/01 21:09:51;;;;;;;13.13;7.38;;;;;;;;;;6277989;22;20061;-94
2023/11/01 21:12:37;;;;;;;10.32;5.68;;;;;;;;;;6285071;22;20004;-96
2023/11/01 21:15:08;;;;;;;9.70;6.60;;;;;;;;;;6283560;22;19999;-94
2023/11/01 21:17:40;;;;;;;11.80;8.15;;;;;;;;;;6284650;22;20003;-94
2023/11/01 21:20:12;;;;;;;11.82;7.57;;;;;;;;;;6284799;22;20019;-96
2023/11/01 21:22:48;;;;;;;13.80;8.20;;;;;;;;;;6289772;22;20013;-93
2023/11/01 21:25:19;;;;;;;15.15;9.60;;;;;;;;;;6282945;22;20016;-94
2023/11/01 21:27:52;;;;;;;19.75;12.10;;;;;;;;;;6280419;22;20091;-94
2023/11/01 21:30:24;;;;;;;15.63;10.25;;;;;;;;;;6279412;22;20008;-93
2023/11/01 21:39:01;;;;;;;19.63;12.02;;;;;;;;;;6282237;22;20007;-94
2023/11/01 21:41:34;;;;;;;22.08;13.25;;;;;;;;;;6281586;22;20015;-93
2023/11/01 21:44:08;;;;;;;21.33;12.60;;;;;;;;;;6282778;22;20019;-94
2023/11/01 21:46:49;;;;;;;;;;;;;;;;;;6280638;22;20003;-94
2023/11/01 21:52:50;;;;;;;21.92;12.30;;;;;;;;;;6284999;22;20294;-94
2023/11/01 21:55:38;;;;;;;20.15;12.93;;;;;;;;;;6286139;22;20011;-94
2023/11/01 21:58:22;;;;;;;21.85;12.80;;;;;;;;;;6281046;22;20000;-95
2023/11/01 22:03:58;;;;;;;27.38;12.23;;;;;;;;;;6312666;22;20094;-93
2023/11/01 22:06:28;;;;;;;20.73;13.55;;;;;;;;;;6289592;22;20026;-93
2023/11/01 22:09:00;;;;;;;23.90;14.00;;;;;;;;;;6287292;22;20011;-94
2023/11/01 22:33:00;;;;;;;22.92;13.75;;;;;;;;;;6222306;23;20032;-93
2023/11/01 22:36:09;;;;;;;24.88;14.90;;;;;;;;;;6193566;23;20013;-93
2023/11/01 22:38:49;;;;;;;19.42;12.63;;;;;;;;;;6128861;23;20381;-94
2023/11/01 22:41:39;;;;;;;25.90;12.95;;;;;;;;;;6132088;23;20053;-93
2023/11/01 22:44:20;;;;;;;18.77;10.73;;;;;;;;;;6166839;23;20366;-93
2023/11/01 22:46:58;;;;;;;14.45;9.50;;;;;;;;;;6193131;23;20473;-91
2023/11/01 22:58:26;;;;;;;16.08;9.10;;;;;;;;;;6194080;23;20021;-94
2023/11/01 23:00:55;;;;;;;14.65;9.45;;;;;;;;;;6193870;23;20032;-93
2023/11/01 23:03:30;;;;;;;13.70;8.52;;;;;;;;;;6196801;23;20013;-93
2023/11/01 23:06:05;;;;;;;15.27;9.88;;;;;;;;;;6204977;23;20074;-92
2023/11/01 23:08:35;;;;;;;15.25;9.63;;;;;;;;;;6200299;23;20009;-93
2023/11/01 23:11:04;;;;;;;15.15;9.07;;;;;;;;;;6217866;22;20011;-95
2023/11/01 23:16:53;;;;;;;11.65;8.68;;;;;;;;;;6298076;22;20038;-93
2023/11/01 23:19:28;;;;;;;10.77;7.63;;;;;;;;;;6272304;22;19995;-94
2023/11/01 23:25:00;;;;;;;12.95;8.52;;;;;;;;;;6303930;22;20010;-94
2023/11/01 23:27:32;;;;;;;12.02;7.93;;;;;;;;;;6287649;22;20019;-94
2023/11/01 23:30:25;;;;;;;11.65;8.50;;;;;;;;;;6276717;22;20019;-93
2023/11/01 23:47:47;;;;;;;15.13;10.40;;;;;;;;;;6312734;22;20033;-94
2023/11/01 23:56:06;;;;;;;20.02;11.48;;;;;;;;;;6306178;22;20516;-93
2023/11/01 23:58:36;;;;;;;16.50;11.95;;;;;;;;;;6286151;22;19987;-93
